Afton, Iowa
Current Conditions -  °F | °C
As of 10:55 AM on Monday 22 Dec 2014 (Local Time) from KCSQ Reporting Station
Haze Haze  
Wind Chill: -1°   Ceiling: 500
Heat Index:   Visibility: 4mi
Dew Point:   Wind: 15mph
Humidity: 100%   Direction: 150°SSE
Pressure: 29.55"   Gusts: NA
Location:  41.03°N, 94.2°W
Report Text: KCSQ 221655Z AUTO 15013KT 4SM BR OVC005 04/04 A2955 RMK AO2 P0001
Loading
Personal Weather Stations






























Interactive Weather Map New forecast layout! Learn more

10-Day Weather Forecast

Advertisements
Track Severe Weather on mobile